Time;durP1;ratioP1;P1;durP2;ratioP2;P2;SDS_P1;SDS_P2;PMS_P1;PMS_P2;Temp;Humidity;BMP_temperature;BMP_pressure;BME280_temperature;BME280_humidity;BME280_pressure;Samples;Min_cycle;Max_cycle;Signal;HPM_P1;HPM_P2
2024/04/15 00:00:08;;;;;;;6.00;5.37;;;;;;;16.50;94.99;97890.72;4535603;26;20620;-82
2024/04/15 00:02:14;;;;;;;8.40;6.80;;;;;;;16.49;94.89;97912.75;4532116;26;20603;-82
2024/04/15 00:04:19;;;;;;;6.83;6.13;;;;;;;16.48;95.18;97966.38;4531345;26;20610;-81
2024/04/15 00:06:23;;;;;;;6.83;6.00;;;;;;;16.51;95.47;97999.34;4531115;26;20613;-81
2024/04/15 00:08:29;;;;;;;7.20;5.20;;;;;;;16.48;95.47;97924.22;4533789;26;21146;-81
2024/04/15 00:10:36;;;;;;;7.70;5.50;;;;;;;16.47;95.13;97907.63;4546060;26;21652;-82
2024/04/15 00:12:42;;;;;;;8.63;5.50;;;;;;;16.48;94.71;97913.69;4506185;26;21104;-82
2024/04/15 00:14:47;;;;;;;6.87;5.70;;;;;;;16.43;95.52;97911.50;4537494;26;20696;-81
2024/04/15 00:16:50;;;;;;;6.50;5.60;;;;;;;16.42;95.56;97914.28;4547334;26;21210;-82
2024/04/15 00:18:55;;;;;;;9.00;5.57;;;;;;;16.44;95.89;97918.44;4506115;26;20928;-81
2024/04/15 00:20:58;;;;;;;6.93;5.73;;;;;;;16.43;95.53;97911.50;4543268;26;20954;-81
2024/04/15 00:23:04;;;;;;;6.80;6.10;;;;;;;16.44;95.81;97901.81;4537802;26;20669;-81
2024/04/15 00:25:07;;;;;;;8.40;6.00;;;;;;;16.44;96.08;97913.16;4510935;26;20623;-82
2024/04/15 00:27:10;;;;;;;6.83;5.90;;;;;;;16.46;97.29;97907.75;4537742;26;20530;-82
2024/04/15 00:29:15;;;;;;;7.70;6.60;;;;;;;16.44;97.02;97915.00;4538231;26;21162;-81
2024/04/15 00:31:20;;;;;;;7.17;5.53;;;;;;;16.44;97.03;97917.63;4538588;26;20944;-82
2024/04/15 00:33:26;;;;;;;6.60;5.90;;;;;;;16.45;97.33;97916.63;4531531;26;20687;-81
2024/04/15 00:35:29;;;;;;;7.30;5.60;;;;;;;16.47;97.64;97938.41;4525161;26;20555;-81
2024/04/15 00:37:34;;;;;;;8.13;5.40;;;;;;;16.48;97.79;97956.69;4481770;26;20558;-81
2024/04/15 00:39:37;;;;;;;6.60;5.80;;;;;;;16.51;97.79;97959.03;4541234;26;20570;-80
2024/04/15 00:41:43;;;;;;;11.93;6.40;;;;;;;16.51;98.02;97957.22;4535479;26;20623;-81
2024/04/15 00:43:47;;;;;;;7.20;6.00;;;;;;;16.52;97.90;97956.25;4518876;26;20557;-82
2024/04/15 00:45:53;;;;;;;7.20;6.30;;;;;;;16.54;98.05;97943.75;4537244;26;20616;-82
2024/04/15 00:47:58;;;;;;;7.70;6.33;;;;;;;16.50;97.00;97926.56;4543227;26;20981;-82
2024/04/15 00:50:03;;;;;;;8.40;5.90;;;;;;;16.48;97.46;97922.44;4502278;26;20625;-82
2024/04/15 00:52:07;;;;;;;8.50;6.47;;;;;;;16.51;97.85;97940.59;4526455;26;20631;-82
2024/04/15 00:54:13;;;;;;;6.30;5.40;;;;;;;16.50;97.86;97934.47;4499508;26;20639;-82
2024/04/15 00:56:16;;;;;;;6.83;6.10;;;;;;;16.48;97.57;97924.22;4543218;26;20591;-81
2024/04/15 00:58:22;;;;;;;6.60;6.00;;;;;;;16.49;97.49;97912.75;4535887;26;20703;-82
2024/04/15 01:00:26;;;;;;;7.70;6.40;;;;;;;16.49;97.42;97912.75;4501916;26;21064;-82
2024/04/15 01:02:32;;;;;;;8.30;6.80;;;;;;;16.50;97.52;97903.88;4534030;26;21057;-82
2024/04/15 01:04:37;;;;;;;7.70;5.63;;;;;;;16.49;97.12;97889.84;4539635;26;20544;-82
2024/04/15 01:06:45;;;;;;;8.20;6.30;;;;;;;16.50;96.81;97885.44;4563913;26;21082;-82
2024/04/15 01:08:49;;;;;;;7.37;6.20;;;;;;;16.50;97.01;97882.81;4536357;26;20576;-82
2024/04/15 01:10:55;;;;;;;7.40;6.17;;;;;;;16.50;96.88;97885.44;4504712;26;21137;-82
2024/04/15 01:13:03;;;;;;;9.00;6.30;;;;;;;16.48;97.58;97882.09;4528854;26;20555;-82
2024/04/15 01:15:10;;;;;;;7.63;6.70;;;;;;;16.50;97.32;97872.28;4528942;26;21174;-82
2024/04/15 01:17:13;;;;;;;7.57;6.17;;;;;;;16.49;98.26;97879.31;4535143;26;20551;-81
2024/04/15 01:19:19;;;;;;;8.67;5.97;;;;;;;16.48;98.12;97879.47;4536266;26;20629;-81
2024/04/15 01:21:25;;;;;;;7.00;5.77;;;;;;;16.48;98.10;97896.13;4555192;25;20630;-82
2024/04/15 01:23:33;;;;;;;7.97;6.37;;;;;;;16.47;98.29;97885.72;4532360;26;20722;-82
2024/04/15 01:25:40;;;;;;;6.80;6.10;;;;;;;16.47;97.48;97896.25;4530398;26;20566;-82
2024/04/15 01:27:46;;;;;;;7.10;6.40;;;;;;;16.48;97.65;97890.00;4537219;26;20665;-81
2024/04/15 01:29:51;;;;;;;7.20;6.23;;;;;;;16.50;97.34;97879.19;4537130;26;21025;-82
2024/04/15 01:31:56;;;;;;;6.60;5.70;;;;;;;16.53;97.79;97876.25;4505206;26;20560;-82
2024/04/15 01:34:00;;;;;;;7.10;6.40;;;;;;;16.52;97.83;97874.63;4534103;26;20928;-82
2024/04/15 01:36:06;;;;;;;8.03;6.10;;;;;;;16.54;97.62;97888.47;4523682;26;20697;-82
2024/04/15 01:38:09;;;;;;;6.53;5.83;;;;;;;16.56;97.82;97875.97;4500458;26;20612;-81
2024/04/15 01:40:14;;;;;;;7.10;6.10;;;;;;;16.55;97.10;97879.59;4559701;25;20558;-82
2024/04/15 01:42:20;;;;;;;7.73;5.93;;;;;;;16.56;97.21;97878.59;4534849;26;20564;-82
2024/04/15 01:44:25;;;;;;;7.30;6.10;;;;;;;16.56;97.19;97875.97;4507026;26;20997;-82
2024/04/15 01:46:29;;;;;;;7.63;6.17;;;;;;;16.56;97.24;97873.34;4529531;26;21048;-82
2024/04/15 01:48:35;;;;;;;7.30;5.90;;;;;;;16.54;97.82;97862.13;4534637;26;20660;-81
2024/04/15 01:50:37;;;;;;;7.00;6.30;;;;;;;16.52;97.89;97869.34;4497742;26;20666;-81
2024/04/15 01:52:43;;;;;;;7.20;6.50;;;;;;;16.51;97.90;97856.34;4507791;26;20564;-82
2024/04/15 01:54:46;;;;;;;9.07;6.50;;;;;;;16.49;98.14;97860.06;4527271;26;20642;-82
2024/04/15 01:56:53;;;;;;;7.60;6.50;;;;;;;16.47;97.99;97846.25;4507754;26;20636;-82
2024/04/15 01:58:58;;;;;;;9.13;6.80;;;;;;;16.46;98.19;97852.47;4489060;26;20646;-82
2024/04/15 02:01:07;;;;;;;9.70;6.87;;;;;;;16.46;98.28;97847.19;4497792;26;20724;-82
2024/04/15 02:03:10;;;;;;;7.30;6.60;;;;;;;16.46;97.64;97847.19;4501289;26;20571;-82
2024/04/15 02:05:16;;;;;;;8.23;6.87;;;;;;;16.45;97.63;97845.53;4534260;26;20636;-81
2024/04/15 02:07:19;;;;;;;12.30;6.70;;;;;;;16.46;98.24;97852.47;4534896;26;20635;-81
2024/04/15 02:09:25;;;;;;;7.50;6.03;;;;;;;16.45;98.56;97849.03;4533714;26;20567;-82
2024/04/15 02:11:28;;;;;;;9.40;6.40;;;;;;;16.45;98.51;97845.53;4525842;26;21245;-81
2024/04/15 02:13:35;;;;;;;7.07;6.33;;;;;;;16.43;98.48;97843.03;4538429;26;20623;-82
2024/04/15 02:15:40;;;;;;;7.30;6.23;;;;;;;16.42;98.72;97845.81;4534818;26;20668;-82
2024/04/15 02:17:46;;;;;;;8.67;6.67;;;;;;;16.41;98.52;97847.66;4502106;26;20565;-82
2024/04/15 02:19:49;;;;;;;8.90;6.23;;;;;;;16.44;98.75;97862.34;4511554;26;20562;-81
2024/04/15 02:21:54;;;;;;;7.97;6.33;;;;;;;16.43;98.64;97852.75;4533145;26;20585;-81
2024/04/15 02:23:57;;;;;;;9.07;6.17;;;;;;;16.41;98.82;97854.72;4528766;26;20668;-82
2024/04/15 02:26:03;;;;;;;9.83;6.70;;;;;;;16.39;99.02;97867.19;4535016;26;20560;-82
2024/04/15 02:28:06;;;;;;;6.70;5.90;;;;;;;16.38;99.15;97871.63;4533187;26;21517;-82
2024/04/15 02:30:12;;;;;;;7.60;6.37;;;;;;;16.40;99.43;97874.94;4526230;26;20568;-82
2024/04/15 02:32:19;;;;;;;7.10;6.10;;;;;;;16.39;99.45;97862.75;4536239;26;20644;-82
2024/04/15 02:34:25;;;;;;;7.10;6.13;;;;;;;16.42;99.49;97856.34;4528298;26;20542;-82
2024/04/15 02:36:28;;;;;;;7.10;6.00;;;;;;;16.40;100.00;97853.88;4563981;26;20564;-81
2024/04/15 02:38:33;;;;;;;8.93;6.60;;;;;;;16.39;100.00;97848.75;4530346;26;20607;-82
2024/04/15 02:40:37;;;;;;;8.23;6.23;;;;;;;16.38;100.00;97844.47;4530146;26;20621;-82
2024/04/15 02:42:41;;;;;;;8.00;6.23;;;;;;;16.34;100.00;97838.69;4519021;26;20619;-81
2024/04/15 02:44:46;;;;;;;7.03;6.30;;;;;;;16.31;100.00;97838.97;4521404;26;20619;-81
2024/04/15 02:46:50;;;;;;;7.37;6.67;;;;;;;16.28;100.00;97831.38;4525330;26;20626;-82
2024/04/15 02:48:58;;;;;;;7.40;6.47;;;;;;;16.26;100.00;97830.66;4539827;26;20595;-82
2024/04/15 02:51:02;;;;;;;8.47;6.97;;;;;;;16.27;100.00;97837.59;4504241;26;20572;-82
2024/04/15 02:53:07;;;;;;;9.80;7.20;;;;;;;16.30;100.00;97844.41;4536449;26;20555;-82
2024/04/15 02:55:10;;;;;;;7.53;6.27;;;;;;;16.30;99.88;97847.03;4534347;26;20539;-82
2024/04/15 02:57:16;;;;;;;9.90;6.80;;;;;;;16.30;99.33;97831.22;4533735;26;20555;-81
2024/04/15 02:59:19;;;;;;;7.57;6.83;;;;;;;16.30;99.27;97821.53;4533960;26;20562;-82
2024/04/15 03:01:24;;;;;;;8.53;6.40;;;;;;;16.30;99.41;97828.59;4530699;26;20576;-82
2024/04/15 03:03:28;;;;;;;8.20;6.40;;;;;;;16.30;99.09;97824.16;4538999;26;20626;-82
2024/04/15 03:05:43;;;;;;;7.63;6.00;;;;;;;16.27;98.95;97807.84;4565380;26;20585;-81
2024/04/15 03:07:47;;;;;;;6.40;5.70;;;;;;;16.26;98.25;97814.88;4532600;26;20873;-82
2024/04/15 03:09:55;;;;;;;8.07;6.20;;;;;;;16.26;98.03;97832.47;4531951;26;20634;-82
2024/04/15 03:11:58;;;;;;;6.30;5.67;;;;;;;16.24;98.18;97832.63;4524856;26;20627;-82
2024/04/15 03:14:04;;;;;;;7.00;5.80;;;;;;;16.23;98.26;97832.78;4517317;26;20650;-82
2024/04/15 03:16:08;;;;;;;7.53;5.70;;;;;;;16.21;97.68;97827.63;4522240;26;20564;-82
2024/04/15 03:18:26;;;;;;;8.00;6.50;;;;;;;16.20;97.45;97809.34;4529954;26;20563;-82
2024/04/15 03:20:30;;;;;;;7.30;6.33;;;;;;;16.20;97.91;97804.91;4515215;26;20567;-81
2024/04/15 03:22:38;;;;;;;7.70;6.10;;;;;;;16.20;97.79;97802.28;4532023;26;20623;-81
2024/04/15 03:24:41;;;;;;;7.40;6.10;;;;;;;16.20;97.39;97830.41;4525770;26;20559;-82
2024/04/15 03:26:47;;;;;;;7.37;6.20;;;;;;;16.19;97.47;97823.47;4529620;26;21076;-82
2024/04/15 03:28:49;;;;;;;8.13;6.03;;;;;;;16.18;97.91;97821.84;4537985;26;20566;-82
2024/04/15 03:30:56;;;;;;;7.33;6.60;;;;;;;16.14;98.29;97815.19;4533226;26;20564;-82
2024/04/15 03:33:00;;;;;;;7.60;6.40;;;;;;;16.14;98.24;97816.00;4497204;26;20581;-82
2024/04/15 03:35:07;;;;;;;8.30;6.47;;;;;;;16.13;97.99;97818.78;4537354;26;20922;-82
2024/04/15 03:37:13;;;;;;;7.90;6.27;;;;;;;16.11;98.41;97815.47;4522087;26;20575;-82
2024/04/15 03:39:21;;;;;;;7.70;6.43;;;;;;;16.10;97.48;97813.81;4528951;26;20608;-81
2024/04/15 03:41:24;;;;;;;7.13;6.00;;;;;;;16.08;97.42;97810.50;4538098;26;20636;-82
2024/04/15 03:43:30;;;;;;;6.70;6.00;;;;;;;16.08;97.25;97821.84;4537634;26;20581;-82
2024/04/15 03:45:34;;;;;;;7.60;5.90;;;;;;;16.08;97.50;97813.97;4534119;26;20575;-82
2024/04/15 03:47:39;;;;;;;7.60;6.00;;;;;;;16.08;97.22;97811.31;4538770;26;21118;-81
2024/04/15 03:49:42;;;;;;;8.73;6.43;;;;;;;16.11;96.87;97810.22;4545423;26;20625;-82
2024/04/15 03:51:48;;;;;;;9.80;7.23;;;;;;;16.12;96.92;97809.25;4536386;26;20690;-82
2024/04/15 03:53:51;;;;;;;7.70;6.23;;;;;;;16.14;96.94;97804.66;4537969;26;20558;-82
2024/04/15 03:55:59;;;;;;;7.90;6.70;;;;;;;16.15;97.28;97806.34;4530348;26;20668;-81
2024/04/15 03:58:03;;;;;;;7.53;6.67;;;;;;;16.13;97.30;97795.09;4501292;26;20555;-82
2024/04/15 04:00:10;;;;;;;7.53;6.33;;;;;;;16.10;97.51;97798.88;4535236;26;20647;-82
2024/04/15 04:02:15;;;;;;;7.30;5.70;;;;;;;16.03;98.04;97791.72;4532726;26;21093;-82
2024/04/15 04:04:20;;;;;;;10.80;6.03;;;;;;;15.97;97.42;97759.91;4564897;26;20540;-82
2024/04/15 04:06:27;;;;;;;8.83;6.40;;;;;;;15.92;97.77;97773.50;4541813;26;20584;-82
2024/04/15 04:08:32;;;;;;;8.17;6.33;;;;;;;15.93;97.85;97784.81;4541418;26;20631;-82
2024/04/15 04:10:35;;;;;;;7.80;6.67;;;;;;;15.92;98.08;97786.63;4530984;26;20615;-82
2024/04/15 04:12:44;;;;;;;7.33;6.37;;;;;;;15.91;98.62;97795.50;4503688;26;20717;-81
2024/04/15 04:14:47;;;;;;;8.23;6.93;;;;;;;15.89;98.74;97810.59;4535339;26;20647;-82
2024/04/15 04:16:53;;;;;;;8.53;6.97;;;;;;;15.90;98.13;97809.59;4532593;26;20625;-82
2024/04/15 04:18:59;;;;;;;9.27;6.77;;;;;;;15.87;98.40;97804.63;4540019;26;20565;-81
2024/04/15 04:21:12;;;;;;;7.30;6.50;;;;;;;15.84;98.64;97794.41;4530644;26;20531;-82
2024/04/15 04:23:15;;;;;;;8.20;7.37;;;;;;;15.83;98.58;97789.28;4536446;26;20561;-82
2024/04/15 04:25:20;;;;;;;9.50;6.83;;;;;;;15.81;98.87;97789.44;4528782;26;20569;-81
2024/04/15 04:27:23;;;;;;;8.73;7.60;;;;;;;15.79;98.24;97780.03;4530221;26;20728;-81
2024/04/15 04:29:32;;;;;;;8.30;7.50;;;;;;;15.80;98.18;97795.69;4537523;26;20690;-82
2024/04/15 04:31:34;;;;;;;8.77;7.87;;;;;;;15.79;97.42;97815.06;4535230;26;20572;-82
2024/04/15 04:33:41;;;;;;;12.90;8.30;;;;;;;15.78;96.67;97813.38;4558186;26;20719;-82
2024/04/15 04:35:46;;;;;;;8.50;7.60;;;;;;;15.78;96.46;97812.56;4538311;26;21157;-81
2024/04/15 04:37:51;;;;;;;9.10;8.20;;;;;;;15.78;96.38;97800.22;4529759;26;20581;-81
2024/04/15 04:39:55;;;;;;;11.30;7.53;;;;;;;15.77;95.61;97798.59;4539177;26;20562;-82
2024/04/15 04:42:01;;;;;;;10.30;7.23;;;;;;;15.77;94.90;97782.81;4531165;26;20585;-81
2024/04/15 04:44:04;;;;;;;9.30;7.40;;;;;;;15.72;95.29;97798.19;4503427;26;20564;-81
2024/04/15 04:46:15;;;;;;;9.67;7.80;;;;;;;15.73;96.07;97799.03;4537538;26;20573;-83
2024/04/15 04:48:18;;;;;;;11.03;8.60;;;;;;;15.67;96.58;97821.44;4532311;26;20680;-83
2024/04/15 04:50:25;;;;;;;9.40;7.77;;;;;;;15.67;96.25;97821.44;4536212;26;20649;-83
2024/04/15 04:52:28;;;;;;;14.33;8.60;;;;;;;15.64;96.02;97831.44;4502541;26;20563;-81
2024/04/15 04:54:34;;;;;;;8.87;8.03;;;;;;;15.64;96.00;97823.53;4534452;26;20561;-82
2024/04/15 04:56:37;;;;;;;16.17;8.33;;;;;;;15.63;95.25;97814.81;4546610;26;20611;-83
2024/04/15 04:58:44;;;;;;;8.90;8.00;;;;;;;15.60;95.52;97815.09;4528195;26;20652;-82
2024/04/15 05:00:47;;;;;;;9.67;7.97;;;;;;;15.56;95.61;97829.50;4534873;26;21073;-82
2024/04/15 05:02:56;;;;;;;12.17;8.03;;;;;;;15.55;96.28;97827.84;4549420;26;20613;-83
2024/04/15 05:04:59;;;;;;;11.20;8.80;;;;;;;15.55;96.75;97829.66;4541003;26;20581;-82
2024/04/15 05:07:04;;;;;;;10.03;8.60;;;;;;;15.53;97.71;97828.97;4531249;26;20936;-83
2024/04/15 05:09:07;;;;;;;9.20;8.30;;;;;;;15.50;97.79;97815.25;4562882;25;21174;-82
2024/04/15 05:11:16;;;;;;;9.67;8.60;;;;;;;15.48;97.74;97825.09;4526382;26;20638;-81
2024/04/15 05:13:19;;;;;;;22.07;15.00;;;;;;;15.46;97.96;97833.13;4503302;26;20673;-81
2024/04/15 05:15:25;;;;;;;10.90;9.10;;;;;;;15.43;98.21;97843.91;4546134;26;21138;-81
2024/04/15 05:17:28;;;;;;;11.20;8.77;;;;;;;15.40;98.56;97843.38;4543665;26;20840;-81
2024/04/15 05:19:37;;;;;;;9.57;8.27;;;;;;;15.37;98.93;97836.59;4532669;26;22036;-82
2024/04/15 05:21:41;;;;;;;11.00;8.93;;;;;;;15.38;98.88;97842.66;4522141;26;20706;-82
2024/04/15 05:23:47;;;;;;;11.17;8.70;;;;;;;15.38;99.04;97845.28;4508432;26;20582;-82
2024/04/15 05:25:50;;;;;;;10.43;8.80;;;;;;;15.37;98.35;97844.47;4533950;26;20555;-81
2024/04/15 05:27:55;;;;;;;10.77;8.83;;;;;;;15.34;98.18;97834.25;4545318;26;20607;-81
2024/04/15 05:29:59;;;;;;;10.50;9.37;;;;;;;15.34;98.05;97833.44;4538304;26;21269;-82
2024/04/15 05:32:04;;;;;;;10.43;9.07;;;;;;;15.35;97.87;97824.56;4530906;26;20557;-82
2024/04/15 05:34:09;;;;;;;10.80;9.17;;;;;;;15.35;97.75;97838.53;4537844;26;20612;-81
2024/04/15 05:36:17;;;;;;;11.67;8.47;;;;;;;15.36;98.21;97832.28;4503589;26;20569;-82
2024/04/15 05:38:20;;;;;;;11.90;9.30;;;;;;;15.39;98.59;97844.34;4507974;26;20575;-82
2024/04/15 05:40:26;;;;;;;11.03;9.37;;;;;;;15.40;98.49;97846.00;4539110;26;20575;-82
2024/04/15 05:42:29;;;;;;;13.23;8.87;;;;;;;15.42;99.06;97862.47;4532324;26;20924;-82
2024/04/15 05:44:35;;;;;;;12.93;9.10;;;;;;;15.43;99.25;97848.34;4519500;26;20663;-81
2024/04/15 05:46:48;;;;;;;10.47;9.17;;;;;;;15.43;99.49;97849.19;4556625;26;20536;-81
2024/04/15 05:48:54;;;;;;;10.40;9.00;;;;;;;15.44;99.16;97857.88;4542940;26;20556;-81
2024/04/15 05:50:57;;;;;;;10.90;9.07;;;;;;;15.43;99.41;97854.44;4531837;26;20564;-82
2024/04/15 05:53:06;;;;;;;10.50;9.00;;;;;;;15.45;99.79;97856.94;4580182;25;20632;-81
2024/04/15 05:55:09;;;;;;;11.10;9.40;;;;;;;15.46;100.00;97858.59;4537476;26;21015;-81
2024/04/15 05:57:15;;;;;;;10.93;9.00;;;;;;;15.46;99.91;97855.97;4530192;26;20613;-82
2024/04/15 05:59:18;;;;;;;12.37;9.47;;;;;;;15.47;99.80;97857.59;4532857;26;20603;-83
2024/04/15 06:01:23;;;;;;;10.70;8.43;;;;;;;15.46;100.00;97861.22;4528659;26;20575;-82
2024/04/15 06:03:26;;;;;;;11.33;8.63;;;;;;;15.46;99.00;97859.41;4549856;26;21230;-82
2024/04/15 06:05:32;;;;;;;13.33;9.27;;;;;;;15.47;98.59;97870.75;4543028;26;20644;-82
2024/04/15 06:07:35;;;;;;;11.33;8.47;;;;;;;15.47;98.87;97865.50;4520691;26;21149;-82
2024/04/15 06:09:43;;;;;;;11.37;7.90;;;;;;;15.46;98.45;97863.84;4566347;25;21266;-82
2024/04/15 06:11:46;;;;;;;9.50;6.50;;;;;;;15.48;97.99;97867.16;4537953;26;20569;-81
2024/04/15 06:13:52;;;;;;;11.97;7.33;;;;;;;15.48;97.49;97859.28;4542249;25;20556;-81
2024/04/15 06:15:55;;;;;;;9.13;6.90;;;;;;;15.51;97.14;97851.94;4532953;26;20560;-81
2024/04/15 06:18:01;;;;;;;9.87;6.70;;;;;;;15.53;96.70;97854.41;4517442;26;20571;-80
2024/04/15 06:20:05;;;;;;;8.70;6.80;;;;;;;15.54;96.64;97853.44;4536141;26;21162;-81
2024/04/15 06:22:10;;;;;;;9.17;6.53;;;;;;;15.56;96.59;97854.97;4537025;26;20993;-81
2024/04/15 06:24:13;;;;;;;11.70;6.60;;;;;;;15.57;95.74;97849.59;4556078;26;20608;-81
2024/04/15 06:26:22;;;;;;;7.90;6.63;;;;;;;15.57;95.09;97841.69;4537594;26;20614;-81
2024/04/15 06:28:25;;;;;;;8.77;6.50;;;;;;;15.61;95.19;97837.78;4534370;26;20625;-81
2024/04/15 06:30:31;;;;;;;9.43;6.60;;;;;;;15.62;94.70;97836.84;4526033;26;20573;-81
2024/04/15 06:32:35;;;;;;;9.20;7.13;;;;;;;15.66;94.37;97843.44;4524684;26;20665;-81
2024/04/15 06:34:41;;;;;;;7.00;6.20;;;;;;;15.64;94.25;97841.94;4528764;26;20915;-79
2024/04/15 06:36:44;;;;;;;8.90;6.30;;;;;;;15.68;95.51;97852.03;4534291;26;20652;-82
2024/04/15 06:38:50;;;;;;;10.07;6.13;;;;;;;15.67;94.69;97852.19;4545986;26;20571;-81
2024/04/15 06:40:53;;;;;;;8.80;6.40;;;;;;;15.67;94.06;97852.19;4532601;26;20597;-81
2024/04/15 06:43:01;;;;;;;11.07;6.80;;;;;;;15.67;94.10;97853.00;4531668;26;20631;-81
2024/04/15 06:45:09;;;;;;;10.80;7.50;;;;;;;15.70;94.56;97857.16;4486152;26;20537;-81
2024/04/15 06:47:14;;;;;;;9.50;6.67;;;;;;;15.72;96.22;97853.41;4544176;26;20611;-82
2024/04/15 06:49:17;;;;;;;9.70;7.20;;;;;;;15.72;96.72;97848.13;4539311;26;20595;-82
2024/04/15 06:51:23;;;;;;;8.40;6.57;;;;;;;15.73;96.13;97841.91;4535764;26;20671;-82
2024/04/15 06:53:26;;;;;;;8.47;7.50;;;;;;;15.74;96.79;97834.84;4530732;26;20567;-82
2024/04/15 06:55:31;;;;;;;7.53;6.03;;;;;;;15.75;96.98;97852.31;4526317;26;20661;-82
2024/04/15 06:57:34;;;;;;;8.30;5.93;;;;;;;15.73;95.39;97862.97;4546593;25;20547;-81
2024/04/15 06:59:42;;;;;;;9.13;6.13;;;;;;;15.71;94.67;97864.06;4546378;26;20553;-81
2024/04/15 07:01:45;;;;;;;7.80;6.30;;;;;;;15.70;94.62;97859.78;4547740;26;20645;-82
2024/04/15 07:03:51;;;;;;;7.00;5.33;;;;;;;15.70;94.47;97860.63;4508805;26;20559;-82
2024/04/15 07:05:54;;;;;;;9.83;6.10;;;;;;;15.68;94.56;97849.41;4483937;26;20952;-82
2024/04/15 07:08:01;;;;;;;9.10;4.80;;;;;;;15.67;93.30;97839.84;4531772;26;20542;-80
2024/04/15 07:10:06;;;;;;;7.93;5.23;;;;;;;15.70;93.83;97838.75;4542518;26;20560;-82
2024/04/15 07:12:13;;;;;;;8.87;4.27;;;;;;;15.75;93.29;97847.84;4551047;26;20568;-81
2024/04/15 07:14:16;;;;;;;8.10;5.40;;;;;;;15.76;92.97;97844.28;4525123;26;21106;-80
2024/04/15 07:16:24;;;;;;;8.30;5.00;;;;;;;15.79;92.55;97846.63;4533405;26;20568;-81
2024/04/15 07:18:28;;;;;;;6.10;4.23;;;;;;;15.80;92.52;97843.03;4527312;26;20673;-81
2024/04/15 07:20:34;;;;;;;7.63;5.00;;;;;;;15.86;92.44;97852.97;4565517;26;20605;-80
2024/04/15 07:22:36;;;;;;;7.13;4.20;;;;;;;15.87;90.93;97846.72;4521257;26;20621;-81
2024/04/15 07:24:42;;;;;;;6.30;4.30;;;;;;;15.88;90.20;97842.31;4529272;26;20605;-81
2024/04/15 07:26:45;;;;;;;7.93;4.37;;;;;;;15.87;90.83;97846.72;4500240;26;20584;-81
2024/04/15 07:28:51;;;;;;;6.03;4.07;;;;;;;15.91;90.96;97847.28;4539981;26;20668;-80
2024/04/15 07:30:58;;;;;;;6.37;3.73;;;;;;;15.95;91.51;97857.38;4541777;26;20533;-81
2024/04/15 07:33:07;;;;;;;5.37;4.07;;;;;;;15.98;91.18;97862.31;4541617;26;21419;-81
2024/04/15 07:35:12;;;;;;;5.47;4.17;;;;;;;15.99;91.40;97853.47;4533814;26;20627;-81
2024/04/15 07:37:17;;;;;;;6.70;4.20;;;;;;;16.00;90.72;97851.66;4521856;26;20547;-80
2024/04/15 07:39:20;;;;;;;6.10;4.37;;;;;;;16.01;90.87;97848.88;4563666;25;20636;-81
2024/04/15 07:41:26;;;;;;;5.83;4.33;;;;;;;16.02;90.91;97859.25;4525367;26;20570;-81
2024/04/15 07:43:29;;;;;;;4.93;4.03;;;;;;;16.04;91.22;97840.69;4539330;26;20556;-81
2024/04/15 07:45:37;;;;;;;7.10;4.40;;;;;;;16.03;91.26;97846.97;4538265;26;21120;-81
2024/04/15 07:47:41;;;;;;;7.00;4.40;;;;;;;16.05;90.95;97842.38;4555468;25;20553;-81
2024/04/15 07:49:49;;;;;;;9.83;4.53;;;;;;;16.05;91.18;97837.09;4495738;26;20617;-81
2024/04/15 07:51:53;;;;;;;8.60;4.23;;;;;;;16.05;91.41;97830.03;4566323;26;20560;-81
2024/04/15 07:53:58;;;;;;;5.67;4.30;;;;;;;16.05;91.82;97834.47;4538153;26;21319;-81
2024/04/15 07:56:02;;;;;;;6.27;4.80;;;;;;;16.05;91.69;97830.03;4540398;26;20546;-82
2024/04/15 07:58:10;;;;;;;7.80;4.23;;;;;;;16.04;91.90;97831.03;4535273;26;20656;-83
2024/04/15 08:00:13;;;;;;;10.63;4.47;;;;;;;16.06;91.83;97825.63;4541826;26;20992;-83
2024/04/15 08:02:19;;;;;;;7.53;4.60;;;;;;;16.08;91.85;97821.84;4505906;26;20615;-82
2024/04/15 08:04:23;;;;;;;8.83;4.70;;;;;;;16.09;92.04;97822.69;4571347;26;20641;-82
2024/04/15 08:06:31;;;;;;;7.90;4.80;;;;;;;16.09;91.71;97830.59;4521266;26;20607;-82
2024/04/15 08:08:34;;;;;;;8.57;5.27;;;;;;;16.11;91.79;97826.00;4526006;26;20665;-82
2024/04/15 08:10:41;;;;;;;6.03;4.57;;;;;;;16.12;92.47;97823.22;4569465;26;21137;-82
2024/04/15 08:12:44;;;;;;;6.57;4.40;;;;;;;16.17;91.97;97828.88;4526388;26;20685;-82
2024/04/15 08:14:50;;;;;;;7.23;5.07;;;;;;;16.21;92.15;97829.44;4508547;26;20625;-82
2024/04/15 08:16:53;;;;;;;7.83;4.63;;;;;;;16.23;92.46;97832.78;4503837;26;20571;-82
2024/04/15 08:18:59;;;;;;;8.03;5.43;;;;;;;16.26;92.37;97845.66;4551706;25;20668;-82
2024/04/15 08:21:04;;;;;;;7.70;4.67;;;;;;;16.25;92.13;97834.31;4518837;26;20570;-82
2024/04/15 08:23:12;;;;;;;7.97;5.30;;;;;;;16.25;92.29;97825.56;4533162;26;20563;-82
2024/04/15 08:25:17;;;;;;;13.53;5.13;;;;;;;16.22;92.78;97817.94;4527007;26;21215;-82
2024/04/15 08:27:22;;;;;;;7.10;4.90;;;;;;;16.21;92.08;97803.94;4509560;26;20656;-82
2024/04/15 08:29:26;;;;;;;11.27;5.43;;;;;;;16.21;92.77;97797.84;4528007;26;20676;-82
2024/04/15 08:31:31;;;;;;;8.47;5.27;;;;;;;16.24;93.05;97802.88;4537941;26;21020;-82
2024/04/15 08:33:34;;;;;;;7.03;5.80;;;;;;;16.25;93.49;97801.88;4537957;26;20631;-82
2024/04/15 08:35:41;;;;;;;8.87;6.00;;;;;;;16.25;94.65;97783.44;4537109;26;20568;-82
2024/04/15 08:37:44;;;;;;;8.67;5.70;;;;;;;16.23;93.46;97794.13;4548064;26;20623;-82
2024/04/15 08:39:52;;;;;;;8.83;5.77;;;;;;;16.24;93.58;97793.16;4539167;26;20565;-81
2024/04/15 08:42:02;;;;;;;7.80;5.33;;;;;;;16.27;93.88;97792.03;4530422;26;20707;-82
2024/04/15 08:44:12;;;;;;;6.77;5.60;;;;;;;16.30;93.01;97799.66;4494826;26;20571;-82
2024/04/15 08:46:24;;;;;;;8.90;5.13;;;;;;;16.16;93.25;97786.91;4539802;26;20570;-82
2024/04/15 08:48:30;;;;;;;9.57;5.27;;;;;;;16.05;93.68;97787.94;4545246;26;21136;-82
2024/04/15 08:50:34;;;;;;;7.03;5.63;;;;;;;16.00;93.68;97786.72;4491411;26;20619;-82
2024/04/15 08:52:41;;;;;;;9.90;6.10;;;;;;;16.02;94.13;97775.06;4506442;26;20677;-81
2024/04/15 08:54:45;;;;;;;7.47;5.70;;;;;;;16.05;93.85;97763.44;4510080;26;20615;-82
2024/04/15 08:56:55;;;;;;;7.80;5.77;;;;;;;16.10;95.17;97767.31;4539431;26;20581;-82
2024/04/15 08:58:58;;;;;;;8.10;6.07;;;;;;;16.09;94.23;97762.19;4540768;26;20608;-81
2024/04/15 09:01:10;;;;;;;9.33;6.37;;;;;;;16.14;94.97;97767.81;4541571;26;20973;-82
2024/04/15 09:03:14;;;;;;;7.60;6.20;;;;;;;16.22;95.00;97773.22;4527484;26;20553;-82
2024/04/15 09:05:20;;;;;;;8.73;6.03;;;;;;;16.30;96.49;97776.78;4507114;26;20618;-82
2024/04/15 09:07:23;;;;;;;8.23;6.30;;;;;;;16.41;96.32;97771.28;4538553;26;20569;-83
2024/04/15 09:09:32;;;;;;;10.27;6.70;;;;;;;16.50;94.59;97774.84;4535428;26;20672;-82
2024/04/15 09:11:38;;;;;;;8.67;6.27;;;;;;;16.54;93.93;97783.13;4539497;26;20637;-82
2024/04/15 09:13:47;;;;;;;11.73;7.03;;;;;;;16.47;92.94;97775.16;4529307;26;20566;-82
2024/04/15 09:15:49;;;;;;;9.40;6.83;;;;;;;16.46;92.96;97768.22;4558171;26;20567;-82
2024/04/15 09:17:55;;;;;;;7.80;6.33;;;;;;;16.40;93.97;97755.66;4544075;26;20950;-82
2024/04/15 09:19:58;;;;;;;8.80;6.43;;;;;;;16.52;93.94;97769.28;4537515;26;20569;-82
2024/04/15 09:22:05;;;;;;;9.80;6.50;;;;;;;16.65;92.96;97766.28;4532684;26;20626;-82
2024/04/15 09:24:09;;;;;;;9.33;6.53;;;;;;;16.80;91.73;97764.78;4534926;26;20556;-82
2024/04/15 09:26:15;;;;;;;8.80;6.77;;;;;;;16.98;91.13;97764.63;4527445;26;20616;-82
2024/04/15 09:28:18;;;;;;;9.00;6.63;;;;;;;17.08;91.12;97761.91;4505646;26;20996;-82
2024/04/15 09:30:29;;;;;;;8.83;6.90;;;;;;;16.92;89.70;97764.41;4537074;26;21068;-82
2024/04/15 09:32:32;;;;;;;9.17;6.90;;;;;;;16.80;89.68;97755.06;4507907;26;20586;-81
2024/04/15 09:34:39;;;;;;;14.47;8.60;;;;;;;16.64;90.09;97746.19;4507120;26;20595;-82
2024/04/15 09:36:47;;;;;;;12.07;8.53;;;;;;;16.50;91.08;97748.53;4541347;26;20552;-82
2024/04/15 09:38:53;;;;;;;11.00;9.07;;;;;;;16.34;89.72;97738.66;4512664;26;20646;-83
2024/04/15 09:40:57;;;;;;;13.10;6.93;;;;;;;16.26;90.71;97737.72;4523930;26;20601;-83
2024/04/15 09:43:02;;;;;;;9.90;8.00;;;;;;;16.13;91.17;97729.31;4500441;26;20641;-82
2024/04/15 09:45:09;;;;;;;10.37;9.00;;;;;;;16.07;91.33;97733.38;4492408;26;20569;-82
2024/04/15 09:47:17;;;;;;;13.13;9.00;;;;;;;16.10;91.42;97730.47;4524640;26;20614;-82